SBJVSBNF

Guest
Details From SBJV - LAURO CARNEIRO DE LOYOLA
To SBNF - Ministro Victor Konder
Flight Number -
Tags generated
Created
Modified
Stats Distance 43 nm / 79 km
Max Altitude 2,300 ft / 701 m
Waypoints 3
Social Downloads 0
Likes 0
Share VATSIM

Download

Looking for another format? Having issues loading an existing format? Contact us
Advertisement - Login to hide

Notes

Basic altitude profile: - Ascent Rate: 2500ft/min - Ascent Speed: 250kts - Cruise Altitude: 35000ft - Cruise Speed: 420kts - Descent Rate: 1500ft/min - Descent Speed: 250kts Options: - Use NATs: yes - Use PACOTS: yes - Use low airways: yes - Use high airways: yes

Route

SBJV GLOVE SBNF

ID Type Via Altitude Latitude Longitude Leg Dist Tot Dist Heading (true) Name
O SBJV APT - 0 ft / 0 m -26.22445˚ -48.79736˚ - 0 nm - LAURO CARNEIRO DE LOYOLA
GLOVE FIX - 2,300 ft / 701 m -26.75117˚ -48.79500˚ 31 nm 31 nm 180° / 180° -
O SBNF APT - 0 ft / 0 m -26.88000˚ -48.65139˚ 10 nm 42 nm 135° / 135° Ministro Victor Konder

Altitude Profile

Advertisement - Login to hide

SBJV

Details ICAO SBJV (JOI)
Name LAURO CARNEIRO DE LOYOLA
Region Brazil
Timezone Unknown (UTC+0.0)
Stats Elevation 15 ft / 5 m (AMSL)
Location -26.224452° -48.797362°
Runways 1
Magnetic Variation 19.629° W

METAR

Not found

TAF

TAF SBJV 171430Z 1718/1806 05007KT 9999 SCT035 TX33/1718Z TN24/1805Z BECMG 1721/1723 19005KT SCT025 PROB30 TEMPO 1723/1801 8000 SHRA BKN010 FEW035TCU BECMG 1801/1803 15005KT SCT010 BKN020 RMK PER

Decode

Departure Runways

ID Width Length Bearing (true) Bearing (mag) Surface Threshold Offset Overrun Length
15 148 ft / 45 m 5,382 ft / 1,640 m 128.89° 148.52° Asphalt 0 ft / 0 m 200 ft / 61 m
33 148 ft / 45 m 5,382 ft / 1,640 m 308.88° 328.51° Asphalt 0 ft / 0 m 200 ft / 61 m

SBNF

Details ICAO SBNF (NVT)
Name Ministro Victor Konder
Region Brazil
Timezone America/Sao_Paulo (UTC-2.0)
Stats Elevation 18 ft / 5 m (AMSL)
Location -26.879998° -48.651387°
Runways 1
Magnetic Variation 19.514° W

METAR

SBNF 180235Z 19003KT 9999 -TSRA BKN015 FEW025CB BKN100 24/22 Q1 014

Decode

TAF

TAF SBNF 171430Z 1718/1818 03010KT 9999 SCT025 TX31/1718Z TN22/1809Z BECMG 1720/1722 16009KT PROB30 TEMPO 1722/1724 8000 SHRA BKN020 FEW035TCU BECMG 1800/1802 BKN020 RMK PER

Decode

Destination Runways

ID Width Length Bearing (true) Bearing (mag) Surface Threshold Offset Overrun Length
07 148 ft / 45 m 5,580 ft / 1,701 m 54.86° 74.37° Asphalt 0 ft / 0 m 190 ft / 58 m
25 148 ft / 45 m 5,580 ft / 1,701 m 234.85° 254.36° Asphalt 0 ft / 0 m 195 ft / 59 m

Popular Alternatives